Logo Frankfurt-Egelsbach Airport
Hessische Flugplatz GmbH Egelsbach
Telefon : +49 (0)6103-9418-0
E-Mail : fly@egelsbach-airport.com
   

 

 

 

 

 

 

Aktuelle Daten

Öffnungszeiten: 0800 LT - ECET (max 2100 LT)

PPR: 0700 LT - 0800 LT, ECET - 2100 LT Tel +49 6103 9418-0

Behördlich vorgeschriebenes Briefing für NVFR-Anflüge mit Jets und Turboprops für die Saison 2015/2016

» Behördlich vorgeschriebenes Briefing für NVFR-Anflüge mit Jets und Turboprops für die Saison 2015/2016

 

Webcam

Webcam

Wetterdaten

Beobachtung von : 31-MAI-2016 - 21:31 UTC
Sicht : ausgefallen
Wolkenuntergrenze : nicht feststellbar
Wind : 140 / 2 kt
Wind extrem (10 min) : 110-150 / 2-3 kt
Temperatur : 12.6° Celsius
Taupunkt : 12.1° Celsius
QNH : 1013.7 hPa
Dichtehöhe : 180 ft

Daten werden automatisch generiert. Verfügbarkeit und Richtigkeit ohne Gewähr.
Mit freundlicher Unterstützung des Deutschen Wetterdienstes

Metar


985
SADL31 EDFE 311850
METAR EDFE 311850Z 24003KT 9999 FEW030 SCT070 17/12 Q1012=

Notam

E0818/16 - CHANGES TO AIR TRAFFIC LAW AND AIRSPACE CHANGES AT FRANKFURT-EGELSBACH AIRFIELD ON 31 MAR 2016. FOR DETAILED INFORMATION SEE AIP AIC VFR 01/16 AND AIP VFR AMDT NR. 03 EFFECTIVE 17 MAR 2016. 17 MAR 08:35 2016 UNTIL 17 JUN 23:59 2016.